Time;durP1;ratioP1;P1;durP2;ratioP2;P2;SDS_P1;SDS_P2;PMS_P1;PMS_P2;Temp;Humidity;BMP_temperature;BMP_pressure;BME280_temperature;BME280_humidity;BME280_pressure;Samples;Min_cycle;Max_cycle;Signal;HPM_P1;HPM_P2
2023/09/05 00:00:14;;;;;;;5.97;5.17;;;18.60;99.90;;;;;;5033294;28;20613;-61
2023/09/05 00:02:48;;;;;;;5.40;4.90;;;18.40;99.90;;;;;;5021163;28;20191;-61
2023/09/05 00:05:14;;;;;;;6.60;6.05;;;18.30;99.90;;;;;;5025004;28;20278;-61
2023/09/05 00:07:40;;;;;;;7.45;5.20;;;18.20;99.90;;;;;;5030538;28;20277;-61
2023/09/05 00:10:11;;;;;;;5.60;5.10;;;18.20;99.90;;;;;;5016919;28;20183;-58
2023/09/05 00:12:41;;;;;;;5.20;4.80;;;18.30;99.90;;;;;;5032698;28;20583;-59
2023/09/05 00:15:11;;;;;;;5.20;4.70;;;18.20;99.90;;;;;;5028468;28;20199;-59
2023/09/05 00:17:37;;;;;;;5.05;4.65;;;18.20;99.90;;;;;;5030383;28;20619;-59
2023/09/05 00:20:05;;;;;;;5.50;5.07;;;18.40;99.90;;;;;;5028021;28;20182;-60
2023/09/05 00:22:30;;;;;;;5.53;5.03;;;18.10;99.90;;;;;;5027691;28;20625;-59
2023/09/05 00:24:56;;;;;;;6.67;4.83;;;18.10;99.90;;;;;;5031487;28;20190;-59
2023/09/05 00:27:21;;;;;;;5.00;4.60;;;18.10;99.90;;;;;;5024249;28;20533;-59
2023/09/05 00:29:47;;;;;;;6.20;5.60;;;18.00;99.90;;;;;;5034399;28;20669;-59
2023/09/05 00:32:13;;;;;;;4.93;4.53;;;18.00;99.90;;;;;;5032379;28;20602;-59
2023/09/05 00:34:39;;;;;;;4.97;4.40;;;18.00;99.90;;;;;;5029030;28;20227;-59
2023/09/05 00:37:07;;;;;;;5.72;4.43;;;17.50;99.90;;;;;;5032522;28;20178;-59
2023/09/05 00:39:33;;;;;;;5.55;4.30;;;18.00;99.90;;;;;;5036738;28;20239;-59
2023/09/05 00:42:00;;;;;;;4.78;4.38;;;17.90;99.90;;;;;;5025704;28;20204;-59
2023/09/05 00:44:27;;;;;;;5.18;4.78;;;17.80;99.90;;;;;;5041822;28;20197;-59
2023/09/05 00:46:55;;;;;;;4.13;3.83;;;17.90;99.90;;;;;;5026154;28;20190;-59
2023/09/05 00:49:27;;;;;;;4.30;4.00;;;18.00;99.90;;;;;;5026948;28;20566;-59
2023/09/05 00:51:57;;;;;;;6.40;4.20;;;17.80;99.90;;;;;;5030713;28;20234;-59
2023/09/05 00:54:23;;;;;;;4.72;4.32;;;17.80;99.90;;;;;;5021502;28;20561;-60
2023/09/05 00:56:49;;;;;;;4.38;3.97;;;17.90;99.90;;;;;;5029197;28;20283;-60
2023/09/05 00:59:16;;;;;;;5.60;4.45;;;17.90;99.90;;;;;;5026675;28;20281;-60
2023/09/05 01:01:42;;;;;;;4.03;3.72;;;17.70;99.90;;;;;;5028904;28;20178;-60
2023/09/05 01:04:08;;;;;;;5.37;4.50;;;17.70;99.90;;;;;;5026358;28;20228;-60
2023/09/05 01:06:52;;;;;;;4.27;3.87;;;17.90;99.90;;;;;;5025657;28;20240;-60
2023/09/05 01:09:42;;;;;;;4.90;3.85;;;17.60;99.90;;;;;;5028590;28;20462;-60
2023/09/05 01:12:08;;;;;;;4.95;4.05;;;17.60;99.90;;;;;;5028317;28;20190;-60
2023/09/05 01:14:34;;;;;;;4.03;3.63;;;17.60;99.90;;;;;;5027922;28;20312;-60
2023/09/05 01:17:05;;;;;;;4.13;3.50;;;17.70;99.90;;;;;;5031755;28;20189;-60
2023/09/05 01:19:34;;;;;;;4.05;3.75;;;17.60;99.90;;;;;;5028604;28;20621;-60
2023/09/05 01:22:15;;;;;;;4.95;3.58;;;17.60;99.90;;;;;;5028228;28;20185;-60
2023/09/05 01:24:41;;;;;;;4.45;3.90;;;17.50;99.90;;;;;;5032047;28;20662;-59
2023/09/05 01:27:17;;;;;;;3.77;3.47;;;17.50;99.90;;;;;;5028635;28;20451;-62
2023/09/05 01:29:44;;;;;;;3.83;3.53;;;17.50;99.90;;;;;;5024214;28;20446;-63
2023/09/05 01:32:10;;;;;;;3.70;3.40;;;17.40;99.90;;;;;;5033420;28;20196;-61
2023/09/05 01:34:36;;;;;;;5.27;3.60;;;17.40;99.90;;;;;;5027834;28;20206;-59
2023/09/05 01:37:02;;;;;;;3.95;3.65;;;17.30;99.90;;;;;;5033733;28;20448;-62
2023/09/05 01:39:27;;;;;;;3.60;3.30;;;17.60;99.90;;;;;;5028362;28;20186;-59
2023/09/05 01:41:53;;;;;;;4.57;4.00;;;17.20;99.90;;;;;;5029709;28;20225;-59
2023/09/05 01:44:19;;;;;;;3.80;3.50;;;17.10;99.90;;;;;;5027675;28;20205;-59
2023/09/05 01:46:45;;;;;;;4.30;3.90;;;17.30;99.90;;;;;;5024804;28;20451;-60
2023/09/05 01:49:11;;;;;;;4.00;3.60;;;17.20;99.90;;;;;;5029351;28;20568;-60
2023/09/05 01:51:36;;;;;;;4.80;4.20;;;17.30;99.90;;;;;;5026199;28;20292;-60
2023/09/05 01:54:02;;;;;;;3.90;3.50;;;17.00;99.90;;;;;;5032448;28;20198;-60
2023/09/05 01:56:28;;;;;;;6.35;3.20;;;17.00;99.90;;;;;;5023290;28;20534;-60
2023/09/05 01:58:54;;;;;;;3.57;3.27;;;17.10;99.90;;;;;;5027127;28;20796;-60
2023/09/05 02:01:20;;;;;;;4.10;3.37;;;17.00;99.90;;;;;;5029208;28;20772;-60
2023/09/05 02:03:46;;;;;;;3.67;3.20;;;17.00;99.90;;;;;;5032244;28;20201;-60
2023/09/05 02:06:13;;;;;;;3.97;3.57;;;17.00;99.90;;;;;;5036964;28;20192;-60
2023/09/05 02:08:39;;;;;;;3.65;3.20;;;16.90;99.90;;;;;;5037233;28;20960;-60
2023/09/05 02:11:05;;;;;;;2.97;2.72;;;17.00;99.90;;;;;;5032440;28;20189;-60
2023/09/05 02:13:31;;;;;;;3.83;3.40;;;16.80;99.90;;;;;;5031480;28;20212;-60
2023/09/05 02:15:56;;;;;;;3.67;3.37;;;16.80;99.90;;;;;;5034218;28;20182;-60
2023/09/05 02:18:22;;;;;;;3.30;3.10;;;16.90;99.90;;;;;;5028484;28;20470;-60
2023/09/05 02:20:47;;;;;;;3.37;3.07;;;16.60;99.90;;;;;;5036993;28;20174;-60
2023/09/05 02:23:13;;;;;;;4.10;3.23;;;16.90;99.90;;;;;;5035204;28;20220;-62
2023/09/05 02:25:39;;;;;;;3.80;3.50;;;16.90;99.90;;;;;;5032802;28;20201;-62
2023/09/05 02:28:05;;;;;;;3.60;3.30;;;16.60;99.90;;;;;;5038443;28;20463;-63
2023/09/05 02:30:31;;;;;;;3.25;2.95;;;16.80;99.90;;;;;;5034821;28;20458;-64
2023/09/05 02:32:57;;;;;;;3.40;3.10;;;16.70;99.90;;;;;;5035504;28;20193;-62
2023/09/05 02:35:27;;;;;;;4.07;2.90;;;16.50;99.90;;;;;;5032355;28;20628;-62
2023/09/05 02:37:54;;;;;;;4.47;3.70;;;16.80;99.90;;;;;;5038590;28;20466;-62
2023/09/05 02:40:20;;;;;;;3.30;2.90;;;16.60;99.90;;;;;;5035474;28;20232;-64
2023/09/05 02:42:45;;;;;;;3.53;2.80;;;16.50;99.90;;;;;;5038092;28;20652;-62
2023/09/05 02:45:12;;;;;;;3.70;3.40;;;16.50;99.90;;;;;;5033636;28;20440;-62
2023/09/05 02:47:38;;;;;;;2.97;2.78;;;16.70;99.90;;;;;;5032390;28;20207;-65
2023/09/05 02:50:05;;;;;;;5.00;3.60;;;16.40;99.90;;;;;;5031558;28;20269;-62
2023/09/05 02:52:31;;;;;;;3.83;3.35;;;16.40;99.90;;;;;;5039542;28;20623;-66
2023/09/05 02:54:57;;;;;;;5.25;3.50;;;16.10;99.90;;;;;;5034200;28;20213;-62
2023/09/05 02:57:23;;;;;;;3.03;2.83;;;16.20;99.90;;;;;;5037275;28;20263;-64
2023/09/05 02:59:53;;;;;;;3.85;3.55;;;16.30;99.90;;;;;;5030585;28;20205;-64
2023/09/05 03:02:19;;;;;;;3.28;2.75;;;16.10;99.90;;;;;;5037327;28;20178;-62
2023/09/05 03:04:45;;;;;;;3.80;3.38;;;16.40;99.90;;;;;;5026483;28;20659;-62
2023/09/05 03:07:10;;;;;;;3.47;3.17;;;16.20;99.90;;;;;;5034408;28;20240;-65
2023/09/05 03:09:37;;;;;;;3.53;3.23;;;16.20;99.90;;;;;;5024388;28;20995;-62
2023/09/05 03:12:05;;;;;;;3.30;3.00;;;16.30;99.90;;;;;;5035308;28;20197;-66
2023/09/05 03:14:30;;;;;;;3.85;3.47;;;16.20;99.90;;;;;;5029605;28;20212;-63
2023/09/05 03:16:57;;;;;;;3.57;3.27;;;16.30;99.90;;;;;;5035853;28;20182;-63
2023/09/05 03:19:22;;;;;;;5.32;3.40;;;16.10;99.90;;;;;;5029079;28;20232;-60
2023/09/05 03:21:49;;;;;;;3.30;2.80;;;16.10;99.90;;;;;;5034955;28;20183;-61
2023/09/05 03:24:17;;;;;;;3.50;3.20;;;16.10;99.90;;;;;;5026370;28;20186;-61
2023/09/05 03:26:46;;;;;;;3.95;3.00;;;16.30;99.90;;;;;;5029921;28;20186;-61
2023/09/05 03:29:12;;;;;;;4.13;2.92;;;16.20;99.90;;;;;;5027230;28;20201;-60
2023/09/05 03:31:41;;;;;;;3.60;3.28;;;16.30;99.90;;;;;;5023808;28;20186;-60
2023/09/05 03:34:07;;;;;;;3.28;2.97;;;16.10;99.90;;;;;;5026577;28;20230;-60
2023/09/05 03:36:33;;;;;;;3.57;3.27;;;15.70;99.90;;;;;;5028986;28;20221;-61
2023/09/05 03:38:59;;;;;;;3.17;2.88;;;16.00;99.90;;;;;;5032566;28;20686;-62
2023/09/05 03:41:24;;;;;;;6.53;2.93;;;16.00;99.90;;;;;;5028982;28;20273;-60
2023/09/05 03:43:50;;;;;;;3.47;3.17;;;16.10;99.90;;;;;;5026838;28;20190;-60
2023/09/05 03:46:16;;;;;;;3.20;2.90;;;16.00;99.90;;;;;;5031068;28;20949;-60
2023/09/05 03:48:41;;;;;;;6.43;3.10;;;15.90;99.90;;;;;;5023776;28;20217;-60
2023/09/05 03:51:07;;;;;;;4.07;3.03;;;15.90;99.90;;;;;;5031912;28;20735;-60
2023/09/05 03:53:33;;;;;;;3.70;3.40;;;16.00;99.90;;;;;;5026689;28;20183;-60
2023/09/05 03:55:58;;;;;;;3.90;3.50;;;16.00;99.90;;;;;;5028158;28;20815;-60
2023/09/05 03:58:24;;;;;;;4.07;3.67;;;15.10;99.90;;;;;;5028447;28;20209;-61
2023/09/05 04:00:49;;;;;;;6.63;4.53;;;15.90;99.90;;;;;;5027616;28;20551;-60
2023/09/05 04:03:15;;;;;;;3.53;3.10;;;15.90;99.90;;;;;;5026588;28;20187;-60
2023/09/05 04:05:41;;;;;;;6.80;4.95;;;15.90;99.90;;;;;;5031025;28;20188;-59
2023/09/05 04:08:09;;;;;;;4.28;3.58;;;15.80;99.90;;;;;;5028404;28;20332;-60
2023/09/05 04:10:34;;;;;;;4.40;3.83;;;15.70;99.90;;;;;;5028729;28;20202;-63
2023/09/05 04:13:00;;;;;;;4.60;4.00;;;15.90;99.90;;;;;;5029294;28;20197;-60
2023/09/05 04:15:26;;;;;;;4.80;3.87;;;15.50;99.90;;;;;;5024875;28;20217;-60
2023/09/05 04:17:52;;;;;;;3.97;3.17;;;15.90;99.90;;;;;;5021757;28;20469;-65
2023/09/05 04:20:18;;;;;;;4.77;3.70;;;15.70;99.90;;;;;;5022612;28;20191;-60
2023/09/05 04:22:44;;;;;;;4.25;3.67;;;15.60;99.90;;;;;;5027077;28;21058;-60
2023/09/05 04:25:09;;;;;;;3.80;3.43;;;15.60;99.90;;;;;;5027174;28;20186;-60
2023/09/05 04:27:35;;;;;;;4.80;3.70;;;15.50;99.90;;;;;;5029456;28;20558;-61
2023/09/05 04:30:01;;;;;;;5.90;3.70;;;15.40;99.90;;;;;;5032707;28;20193;-60
2023/09/05 04:32:32;;;;;;;4.00;3.70;;;15.50;99.90;;;;;;5023666;28;20694;-60
2023/09/05 04:35:00;;;;;;;5.00;3.78;;;15.60;99.90;;;;;;5024710;28;20224;-61
2023/09/05 04:37:26;;;;;;;5.18;3.25;;;15.60;99.90;;;;;;5028555;28;20237;-61
2023/09/05 04:39:52;;;;;;;3.58;3.28;;;15.60;99.90;;;;;;5028646;28;20186;-61
2023/09/05 04:42:17;;;;;;;4.13;3.55;;;15.30;99.90;;;;;;5028659;28;20182;-61
2023/09/05 04:44:43;;;;;;;4.70;3.63;;;15.50;99.90;;;;;;5024958;28;20182;-61
2023/09/05 04:47:20;;;;;;;3.40;3.10;;;15.50;99.90;;;;;;5028976;28;20209;-61
2023/09/05 04:49:47;;;;;;;3.78;3.22;;;15.50;99.90;;;;;;5021544;28;20205;-61
2023/09/05 04:52:14;;;;;;;4.20;3.80;;;15.30;99.90;;;;;;5023890;28;20196;-61
2023/09/05 04:54:40;;;;;;;8.18;4.18;;;15.40;99.90;;;;;;5025763;28;20811;-61
2023/09/05 04:57:06;;;;;;;5.60;4.00;;;15.50;99.90;;;;;;5024985;28;20192;-61
2023/09/05 04:59:33;;;;;;;4.85;3.63;;;15.40;99.90;;;;;;5029616;28;20229;-61
2023/09/05 05:01:58;;;;;;;3.93;3.50;;;15.50;99.90;;;;;;5029971;28;20210;-61
2023/09/05 05:04:24;;;;;;;5.60;3.80;;;15.40;99.90;;;;;;5030424;28;20194;-60
2023/09/05 05:06:49;;;;;;;3.70;3.40;;;15.40;99.90;;;;;;5023998;28;20587;-60
2023/09/05 05:09:15;;;;;;;3.67;3.33;;;15.50;99.90;;;;;;5031512;28;20201;-60
2023/09/05 05:11:40;;;;;;;3.93;3.63;;;15.50;99.90;;;;;;5024832;28;21763;-60
2023/09/05 05:14:06;;;;;;;3.80;3.43;;;15.40;99.90;;;;;;5027129;28;20214;-62
2023/09/05 05:16:32;;;;;;;3.83;3.43;;;15.50;99.90;;;;;;5021104;28;20206;-60
2023/09/05 05:18:57;;;;;;;4.50;4.10;;;15.50;99.90;;;;;;5026371;28;20206;-60
2023/09/05 05:21:23;;;;;;;4.70;4.30;;;15.60;99.90;;;;;;5030701;28;20560;-60
2023/09/05 05:23:48;;;;;;;3.53;3.23;;;15.70;99.90;;;;;;5026688;28;20194;-60
2023/09/05 05:26:14;;;;;;;6.63;3.67;;;15.70;99.90;;;;;;5025582;28;20762;-60
2023/09/05 05:28:41;;;;;;;4.20;3.20;;;15.50;99.90;;;;;;5034731;28;20212;-60
2023/09/05 05:31:13;;;;;;;4.15;3.53;;;15.30;99.90;;;;;;5028894;28;20177;-62
2023/09/05 05:33:39;;;;;;;3.92;3.63;;;15.60;99.90;;;;;;5023513;28;20449;-61
2023/09/05 05:36:05;;;;;;;5.93;3.57;;;15.80;99.90;;;;;;5035361;28;20182;-60
2023/09/05 05:38:30;;;;;;;4.83;3.90;;;15.80;99.90;;;;;;5030672;28;20288;-61
2023/09/05 05:40:57;;;;;;;6.70;3.87;;;15.90;99.90;;;;;;5034774;28;20584;-60
2023/09/05 05:43:24;;;;;;;4.50;3.80;;;15.90;99.90;;;;;;5038923;28;20727;-61
2023/09/05 05:45:51;;;;;;;5.90;3.75;;;15.90;99.90;;;;;;5033475;28;20241;-62
2023/09/05 05:48:17;;;;;;;5.50;4.50;;;15.90;99.90;;;;;;5038525;28;20225;-61
2023/09/05 05:50:43;;;;;;;5.70;3.87;;;16.10;99.90;;;;;;5027454;28;20656;-61
2023/09/05 05:53:08;;;;;;;4.30;3.90;;;16.30;99.90;;;;;;5042057;28;20189;-60
2023/09/05 05:55:34;;;;;;;4.33;3.93;;;16.60;99.90;;;;;;5031223;28;20815;-60
2023/09/05 05:58:00;;;;;;;4.30;3.90;;;16.40;99.90;;;;;;5035780;28;20202;-60
2023/09/05 06:00:27;;;;;;;4.20;3.80;;;16.40;99.90;;;;;;5037972;28;20320;-60
2023/09/05 06:02:52;;;;;;;4.65;4.00;;;16.60;99.90;;;;;;5035779;28;20182;-60
2023/09/05 06:05:18;;;;;;;4.43;4.00;;;16.90;99.90;;;;;;5031381;28;20193;-60
2023/09/05 06:07:44;;;;;;;6.70;6.00;;;16.90;99.90;;;;;;5031090;28;20221;-60
2023/09/05 06:10:11;;;;;;;6.70;4.63;;;16.90;99.90;;;;;;5029732;28;20213;-60
2023/09/05 06:12:37;;;;;;;5.82;3.80;;;17.10;99.90;;;;;;5030147;28;20177;-60
2023/09/05 06:15:02;;;;;;;4.13;3.83;;;17.10;99.90;;;;;;5034983;28;20220;-60
2023/09/05 06:17:28;;;;;;;4.90;3.63;;;17.20;99.90;;;;;;5033258;28;20925;-60
2023/09/05 06:19:54;;;;;;;4.63;3.80;;;17.70;99.90;;;;;;5036082;28;20547;-60
2023/09/05 06:22:19;;;;;;;4.40;4.00;;;17.50;99.90;;;;;;5033347;28;20217;-60
2023/09/05 06:24:45;;;;;;;6.23;3.90;;;17.80;99.90;;;;;;5033388;28;20552;-60
2023/09/05 06:27:10;;;;;;;6.27;3.70;;;17.80;99.90;;;;;;5035079;28;20186;-61
2023/09/05 06:29:36;;;;;;;5.63;4.40;;;17.90;99.90;;;;;;5033360;28;20284;-60
2023/09/05 06:32:02;;;;;;;6.37;4.37;;;18.00;99.90;;;;;;5037315;28;20181;-60
2023/09/05 06:34:27;;;;;;;7.10;5.00;;;18.10;99.90;;;;;;5033837;28;20218;-60
2023/09/05 06:36:53;;;;;;;6.23;5.03;;;18.20;99.90;;;;;;5034293;28;20261;-61
2023/09/05 06:39:19;;;;;;;6.23;5.40;;;18.40;99.90;;;;;;5038897;28;20185;-61
2023/09/05 06:41:44;;;;;;;6.00;4.90;;;18.60;99.90;;;;;;5031077;28;20443;-61
2023/09/05 06:44:10;;;;;;;5.77;4.40;;;18.70;99.90;;;;;;5040362;28;20654;-64
2023/09/05 06:46:36;;;;;;;4.53;3.80;;;19.00;99.90;;;;;;5032674;28;20182;-62
2023/09/05 06:49:02;;;;;;;7.00;5.10;;;19.20;99.90;;;;;;5035241;28;20209;-64
2023/09/05 06:51:30;;;;;;;5.18;4.68;;;19.10;99.90;;;;;;5033579;28;20198;-60
2023/09/05 06:53:56;;;;;;;4.63;4.22;;;19.40;99.90;;;;;;5037236;28;20922;-61
2023/09/05 06:56:22;;;;;;;5.72;4.20;;;19.60;99.90;;;;;;5032940;28;20186;-61
2023/09/05 06:58:47;;;;;;;5.00;4.50;;;19.80;99.90;;;;;;5027452;28;20344;-62
2023/09/05 07:01:13;;;;;;;4.07;2.97;;;20.60;99.90;;;;;;5037815;28;20538;-60
2023/09/05 07:03:39;;;;;;;4.30;3.20;;;22.40;95.90;;;;;;5034913;28;20185;-60
2023/09/05 07:06:04;;;;;;;3.53;3.23;;;25.30;92.50;;;;;;5036456;28;20185;-60
2023/09/05 07:08:31;;;;;;;2.40;2.20;;;28.50;85.00;;;;;;5035282;28;20212;-61
2023/09/05 07:10:57;;;;;;;2.87;2.67;;;31.00;71.10;;;;;;5034919;28;20182;-61
2023/09/05 07:13:22;;;;;;;2.40;2.20;;;33.20;61.80;;;;;;5033416;28;20437;-61
2023/09/05 07:15:48;;;;;;;4.63;2.70;;;34.90;54.40;;;;;;5035044;28;20213;-61
2023/09/05 07:18:14;;;;;;;2.97;2.77;;;34.40;51.10;;;;;;5036240;28;20248;-61
2023/09/05 07:20:40;;;;;;;3.30;3.00;;;34.60;50.60;;;;;;5031363;28;20178;-61
2023/09/05 07:23:05;;;;;;;4.27;2.63;;;34.80;48.60;;;;;;5032717;28;20289;-61
2023/09/05 07:25:31;;;;;;;3.30;3.10;;;35.90;46.60;;;;;;5035628;28;20442;-61
2023/09/05 07:27:57;;;;;;;3.10;2.63;;;37.00;45.70;;;;;;5036404;28;20221;-61
2023/09/05 07:30:23;;;;;;;2.60;2.37;;;38.20;43.60;;;;;;5036940;28;20290;-61
2023/09/05 07:32:49;;;;;;;2.83;2.50;;;39.00;41.80;;;;;;5028182;28;20950;-61
2023/09/05 07:35:15;;;;;;;3.10;2.90;;;40.00;40.40;;;;;;5025333;28;20741;-62
2023/09/05 07:37:41;;;;;;;2.60;2.40;;;40.90;37.30;;;;;;5033452;28;20201;-62
2023/09/05 07:40:08;;;;;;;3.23;2.70;;;40.40;37.10;;;;;;5030648;28;20186;-65
2023/09/05 07:42:34;;;;;;;3.00;2.80;;;39.70;37.30;;;;;;5032500;28;20424;-64
2023/09/05 07:45:02;;;;;;;10.03;3.77;;;39.80;37.00;;;;;;5035950;28;20458;-64
2023/09/05 07:47:27;;;;;;;2.53;2.33;;;40.00;36.30;;;;;;5037598;28;20218;-64
2023/09/05 07:49:53;;;;;;;2.77;2.50;;;39.80;35.60;;;;;;5030198;28;20459;-61
2023/09/05 07:52:19;;;;;;;2.73;2.53;;;39.80;36.00;;;;;;5037649;28;20205;-62
2023/09/05 07:54:45;;;;;;;2.80;2.60;;;39.50;35.90;;;;;;5032167;28;20391;-62
2023/09/05 07:57:10;;;;;;;3.00;2.60;;;40.10;35.00;;;;;;5032394;28;20573;-63
2023/09/05 07:59:36;;;;;;;4.13;2.90;;;39.90;34.70;;;;;;5031052;28;20178;-62
2023/09/05 08:02:01;;;;;;;3.00;2.80;;;39.80;35.90;;;;;;5032872;28;20259;-63
2023/09/05 08:04:29;;;;;;;2.80;2.40;;;39.70;34.80;;;;;;5031544;28;20238;-61
2023/09/05 08:06:54;;;;;;;2.40;2.30;;;38.90;35.50;;;;;;5035538;28;20197;-62
2023/09/05 08:09:20;;;;;;;3.50;2.50;;;39.10;36.10;;;;;;5028092;28;20441;-62
2023/09/05 08:11:46;;;;;;;2.90;2.60;;;38.90;35.10;;;;;;5048888;22;20226;-76
2023/09/05 08:14:11;;;;;;;2.30;2.10;;;38.60;36.70;;;;;;5030521;28;20202;-75
2023/09/05 08:16:38;;;;;;;2.80;2.60;;;38.10;36.10;;;;;;5037124;28;20169;-75
2023/09/05 08:19:04;;;;;;;3.60;2.40;;;37.90;36.80;;;;;;5034474;28;20197;-75
2023/09/05 08:21:29;;;;;;;2.80;2.60;;;38.00;36.70;;;;;;5033667;28;20441;-75
2023/09/05 08:23:55;;;;;;;2.33;2.20;;;37.90;36.70;;;;;;5028435;28;20429;-75
2023/09/05 08:26:21;;;;;;;3.23;2.53;;;37.90;37.30;;;;;;5026772;28;20258;-74
2023/09/05 08:28:46;;;;;;;2.93;2.40;;;37.30;38.20;;;;;;5028906;28;20202;-75
2023/09/05 08:31:13;;;;;;;3.43;3.23;;;36.70;38.90;;;;;;5029741;28;20643;-74
2023/09/05 08:33:39;;;;;;;2.93;2.53;;;36.70;39.10;;;;;;5024378;28;20178;-74
2023/09/05 08:36:05;;;;;;;2.27;2.17;;;36.20;40.10;;;;;;5024690;28;20532;-77
2023/09/05 08:38:31;;;;;;;2.50;2.30;;;36.50;39.20;;;;;;5028050;28;20190;-76
2023/09/05 08:41:06;;;;;;;2.77;2.57;;;35.90;40.00;;;;;;5022653;28;20821;-74
2023/09/05 08:43:33;;;;;;;3.27;2.97;;;34.70;40.90;;;;;;5024666;28;20173;-74
2023/09/05 08:46:03;;;;;;;2.73;2.53;;;33.60;42.80;;;;;;5028372;28;20483;-74
2023/09/05 08:48:30;;;;;;;3.40;3.17;;;33.00;44.30;;;;;;5031028;28;21064;-74
2023/09/05 08:50:58;;;;;;;3.07;2.77;;;32.20;46.00;;;;;;5018274;28;20825;-74
2023/09/05 08:53:30;;;;;;;3.47;3.17;;;31.60;46.90;;;;;;5032430;28;20529;-74
2023/09/05 08:55:57;;;;;;;2.73;2.53;;;30.90;48.50;;;;;;5027061;28;20461;-74
2023/09/05 08:58:24;;;;;;;2.50;2.30;;;30.30;49.40;;;;;;5020514;28;20476;-75
2023/09/05 09:00:49;;;;;;;3.30;3.00;;;29.90;50.60;;;;;;5030380;28;20440;-75
2023/09/05 09:03:15;;;;;;;3.23;2.93;;;29.70;52.10;;;;;;5028195;28;20440;-75
2023/09/05 09:05:45;;;;;;;2.97;2.77;;;29.40;52.30;;;;;;5032075;28;20189;-74
2023/09/05 09:08:10;;;;;;;2.90;2.57;;;28.80;53.00;;;;;;5020422;28;20216;-75
2023/09/05 09:10:36;;;;;;;3.77;2.63;;;28.50;54.50;;;;;;5026686;28;20454;-75
2023/09/05 09:13:16;;;;;;;4.63;2.70;;;28.20;55.10;;;;;;5029867;28;20433;-75
2023/09/05 09:15:43;;;;;;;2.67;2.47;;;27.60;56.00;;;;;;5024184;28;20218;-75
2023/09/05 09:18:20;;;;;;;3.50;3.00;;;27.00;57.70;;;;;;5024334;28;20977;-74
2023/09/05 09:20:46;;;;;;;3.33;2.63;;;27.00;58.50;;;;;;5029455;28;20432;-74
2023/09/05 09:23:12;;;;;;;3.47;2.60;;;26.80;58.30;;;;;;5026901;28;20452;-74
2023/09/05 09:25:48;;;;;;;2.77;2.57;;;26.60;59.10;;;;;;5032232;28;20462;-76
2023/09/05 09:28:34;;;;;;;2.97;2.77;;;26.50;59.20;;;;;;5028367;28;20465;-75
2023/09/05 09:31:02;;;;;;;2.70;2.50;;;26.50;60.40;;;;;;5028231;28;21154;-75
2023/09/05 09:33:30;;;;;;;2.63;2.43;;;26.60;60.00;;;;;;5030104;28;21922;-74
2023/09/05 09:36:04;;;;;;;8.77;7.80;;;26.70;59.80;;;;;;5029282;28;20472;-74
2023/09/05 09:38:30;;;;;;;4.70;3.80;;;26.70;59.70;;;;;;5030494;28;20472;-75
2023/09/05 09:41:00;;;;;;;2.40;2.20;;;26.70;59.80;;;;;;5024795;28;20888;-75
2023/09/05 09:43:32;;;;;;;2.70;2.50;;;26.70;58.40;;;;;;5028201;28;20441;-75
2023/09/05 09:46:00;;;;;;;2.83;2.53;;;26.50;59.60;;;;;;5025247;28;20883;-75
2023/09/05 09:48:29;;;;;;;2.97;2.53;;;26.50;60.60;;;;;;5022105;28;20464;-74
2023/09/05 09:50:56;;;;;;;2.67;2.47;;;26.50;61.10;;;;;;5030511;28;20452;-74
2023/09/05 09:53:30;;;;;;;3.13;2.60;;;26.50;60.80;;;;;;5033839;28;20808;-75
2023/09/05 09:55:57;;;;;;;4.10;2.07;;;26.40;60.80;;;;;;5023883;28;20473;-74
2023/09/05 09:58:25;;;;;;;2.50;2.30;;;26.40;60.00;;;;;;5033377;28;20547;-74
2023/09/05 10:00:51;;;;;;;3.47;2.60;;;26.40;60.70;;;;;;5022193;28;20595;-76
2023/09/05 10:03:18;;;;;;;2.40;2.20;;;26.30;61.30;;;;;;5025630;28;20442;-75
2023/09/05 10:05:45;;;;;;;2.40;2.20;;;26.60;60.80;;;;;;5025858;28;20444;-75
2023/09/05 10:08:12;;;;;;;3.03;2.83;;;26.80;59.80;;;;;;5029144;28;20828;-75
2023/09/05 10:10:39;;;;;;;2.40;2.20;;;26.80;59.80;;;;;;5021576;28;20930;-75
2023/09/05 10:13:07;;;;;;;3.07;2.10;;;26.70;59.30;;;;;;5028079;28;20440;-75
2023/09/05 10:15:38;;;;;;;2.27;2.07;;;26.60;59.50;;;;;;5028775;28;20484;-74
2023/09/05 10:18:09;;;;;;;3.87;2.07;;;26.50;59.80;;;;;;5034156;28;20459;-75
2023/09/05 10:20:37;;;;;;;3.60;2.33;;;26.50;60.10;;;;;;5030077;28;20524;-75
2023/09/05 10:23:05;;;;;;;2.43;2.23;;;26.40;60.40;;;;;;5030545;28;20443;-74
2023/09/05 10:25:31;;;;;;;2.10;1.90;;;26.40;60.90;;;;;;5032190;28;20855;-75
2023/09/05 10:27:57;;;;;;;2.27;2.07;;;26.50;60.40;;;;;;5036918;28;20467;-75
2023/09/05 10:30:23;;;;;;;2.03;1.93;;;26.40;60.30;;;;;;5031892;28;20445;-75
2023/09/05 10:32:51;;;;;;;1.83;1.73;;;26.40;60.40;;;;;;5035934;28;20250;-75
2023/09/05 10:35:18;;;;;;;2.60;2.40;;;26.40;60.80;;;;;;5032038;28;20689;-75
2023/09/05 10:37:48;;;;;;;2.13;2.03;;;26.60;60.70;;;;;;5036503;28;20463;-74
2023/09/05 10:40:14;;;;;;;3.90;2.70;;;26.50;60.70;;;;;;5027228;28;20442;-75
2023/09/05 10:42:55;;;;;;;2.37;2.17;;;26.60;61.50;;;;;;5031766;28;20440;-76
2023/09/05 10:45:23;;;;;;;2.37;2.17;;;26.60;61.90;;;;;;5033236;28;20215;-75
2023/09/05 10:47:56;;;;;;;2.77;2.10;;;26.60;60.40;;;;;;5028976;28;20544;-74
2023/09/05 10:50:23;;;;;;;2.50;2.30;;;26.70;60.50;;;;;;5031967;28;20474;-74
2023/09/05 10:53:11;;;;;;;2.47;2.27;;;26.60;60.40;;;;;;5032649;28;20453;-75
2023/09/05 10:55:46;;;;;;;2.00;1.90;;;26.60;61.20;;;;;;5026920;28;20866;-75
2023/09/05 10:58:38;;;;;;;2.47;2.27;;;26.60;61.50;;;;;;5026542;28;20522;-75
2023/09/05 11:01:30;;;;;;;2.43;2.07;;;26.60;60.40;;;;;;5032616;28;20444;-75
2023/09/05 11:03:58;;;;;;;2.17;1.97;;;26.70;61.90;;;;;;5027378;28;20987;-76
2023/09/05 11:06:25;;;;;;;2.37;1.80;;;26.80;59.60;;;;;;5034068;28;20533;-75
2023/09/05 11:09:05;;;;;;;2.50;1.90;;;27.20;59.50;;;;;;5033282;28;20573;-74
2023/09/05 11:11:31;;;;;;;2.40;2.23;;;27.30;59.00;;;;;;5030889;28;20464;-75
2023/09/05 11:13:57;;;;;;;2.00;1.90;;;27.30;59.30;;;;;;5033257;28;20465;-75
2023/09/05 11:16:24;;;;;;;2.17;1.97;;;27.30;58.50;;;;;;5031430;28;20471;-75
2023/09/05 11:18:56;;;;;;;1.93;1.83;;;27.20;58.20;;;;;;5033812;28;20207;-75
2023/09/05 11:21:23;;;;;;;2.20;2.00;;;27.20;57.70;;;;;;5029030;28;20518;-74
2023/09/05 11:23:58;;;;;;;2.80;2.23;;;27.10;58.40;;;;;;5036414;28;20442;-75
2023/09/05 11:26:24;;;;;;;2.80;1.90;;;27.10;58.90;;;;;;5028062;28;20946;-75
2023/09/05 11:28:51;;;;;;;2.20;2.00;;;27.30;58.80;;;;;;5033106;28;20470;-75
2023/09/05 11:31:17;;;;;;;3.20;2.03;;;27.40;57.70;;;;;;5034569;28;20444;-75
2023/09/05 11:33:45;;;;;;;3.67;1.97;;;27.40;57.50;;;;;;5029597;28;20463;-77
2023/09/05 11:36:11;;;;;;;1.83;1.70;;;27.60;58.20;;;;;;5029429;28;20475;-76
2023/09/05 11:38:50;;;;;;;2.23;2.00;;;27.80;56.80;;;;;;5029487;28;20458;-75
2023/09/05 11:41:18;;;;;;;1.90;1.80;;;27.70;56.00;;;;;;5032316;28;20439;-75
2023/09/05 11:43:49;;;;;;;2.07;1.97;;;27.70;57.20;;;;;;5035391;28;21009;-75
2023/09/05 11:46:16;;;;;;;4.73;2.50;;;27.70;57.70;;;;;;5031577;28;20438;-75
2023/09/05 11:48:44;;;;;;;2.10;2.00;;;27.70;57.20;;;;;;5027180;28;20464;-75
2023/09/05 11:51:14;;;;;;;1.90;1.80;;;27.60;57.30;;;;;;5033643;28;20451;-75
2023/09/05 11:53:42;;;;;;;2.03;1.93;;;27.60;57.40;;;;;;5026815;28;20443;-76
2023/09/05 11:56:09;;;;;;;2.20;2.00;;;27.70;57.50;;;;;;5029735;28;21125;-75
2023/09/05 11:58:35;;;;;;;2.50;2.30;;;28.00;57.60;;;;;;5044206;28;20465;-75
2023/09/05 12:01:00;;;;;;;2.27;2.07;;;28.30;56.80;;;;;;5033174;28;20457;-75
2023/09/05 12:03:28;;;;;;;2.50;2.00;;;28.60;55.00;;;;;;5032589;28;20174;-76
2023/09/05 12:05:54;;;;;;;2.23;2.00;;;28.80;54.80;;;;;;5027900;28;20225;-75
2023/09/05 12:08:21;;;;;;;1.70;1.60;;;28.70;53.20;;;;;;5032486;28;20458;-75
2023/09/05 12:10:50;;;;;;;2.07;1.63;;;28.60;53.30;;;;;;5025128;28;20478;-75
2023/09/05 12:13:17;;;;;;;2.17;1.90;;;28.50;53.20;;;;;;5028078;28;20489;-75
2023/09/05 12:15:47;;;;;;;1.87;1.77;;;28.50;54.20;;;;;;5031191;28;20468;-75
2023/09/05 12:18:22;;;;;;;2.10;1.90;;;28.60;54.90;;;;;;5027389;28;20570;-76
2023/09/05 12:20:56;;;;;;;2.20;2.10;;;28.60;55.50;;;;;;5044144;28;20471;-75
2023/09/05 12:23:23;;;;;;;3.07;2.13;;;28.60;55.30;;;;;;5026877;28;20445;-75
2023/09/05 12:25:52;;;;;;;2.17;2.00;;;28.40;55.10;;;;;;5024252;28;20986;-76
2023/09/05 12:28:20;;;;;;;2.87;2.10;;;28.30;55.50;;;;;;5028015;28;20549;-77
2023/09/05 12:30:47;;;;;;;1.90;1.80;;;28.20;54.90;;;;;;5033290;28;21051;-75
2023/09/05 12:33:14;;;;;;;2.47;1.80;;;28.20;54.60;;;;;;5025581;28;20443;-77
2023/09/05 12:35:39;;;;;;;2.90;2.40;;;28.30;55.50;;;;;;5025495;28;20633;-75
2023/09/05 12:38:07;;;;;;;2.53;2.33;;;28.40;55.80;;;;;;5026107;28;21033;-75
2023/09/05 12:40:33;;;;;;;2.20;1.90;;;28.50;55.70;;;;;;5029837;28;20229;-76
2023/09/05 12:42:59;;;;;;;4.20;2.43;;;28.50;56.30;;;;;;5033250;28;20432;-76
2023/09/05 12:45:25;;;;;;;2.00;1.80;;;28.50;56.00;;;;;;5034050;28;20481;-76
2023/09/05 12:47:53;;;;;;;2.20;1.83;;;28.30;55.80;;;;;;5024518;28;20466;-74